This is the latest recevied weather packets stored in our database for station/object KJ5IIV. If no packets are shown the sender has not sent any weather packets the latest 10 day(s).
| Time | Temp. | Humidity | Pressure | Rain* | Wind** | Luminosity | Snow |
|---|---|---|---|---|---|---|---|
| 1778172392 | 20° C | 58% | 1018.8 hPa | 0 mm | - | 912 W/m² | - |
| 1778172090 | 20° C | 59% | 1018.8 hPa | 0 mm | - | 893 W/m² | - |
| 1778171787 | 20° C | 59% | 1018.7 hPa | 0 mm | - | 891 W/m² | - |
| 1778171485 | 20° C | 60% | 1018.7 hPa | 0 mm | - | 886 W/m² | - |
| 1778171180 | 20° C | 58% | 1018.6 hPa | 0 mm | - | 869 W/m² | - |
| 1778170877 | 20° C | 59% | 1018.6 hPa | 0 mm | - | 868 W/m² | - |
| 1778170573 | 20° C | 57% | 1018.9 hPa | 0 mm | - | 854 W/m² | - |
| 1778170270 | 20° C | 60% | 1018.9 hPa | 0 mm | - | 844 W/m² | - |
| 1778169966 | 19.44° C | 63% | 1019.2 hPa | 0 mm | - | 854 W/m² | - |
| 1778169663 | 19.44° C | 61% | 1019.3 hPa | 0 mm | - | 797 W/m² | - |
| 1778169358 | 18.89° C | 63% | 1019.3 hPa | 0 mm | - | 840 W/m² | - |
| 1778169055 | 18.33° C | 63% | 1019.4 hPa | 0 mm | - | 801 W/m² | - |
| 1778168752 | 18.89° C | 63% | 1019.4 hPa | 0 mm | - | 765 W/m² | - |
| 1778168449 | 18.33° C | 66% | 1019.7 hPa | 0 mm | - | 813 W/m² | - |
| 1778168146 | 18.33° C | 63% | 1019.5 hPa | 0 mm | - | 639 W/m² | - |
| 1778167842 | 18.33° C | 65% | 1019.2 hPa | 0 mm | - | 556 W/m² | - |
| 1778167538 | 17.78° C | 65% | 1019.5 hPa | 0 mm | - | 794 W/m² | - |
| 1778167234 | 18.33° C | 64% | 1019.6 hPa | 0 mm | - | 723 W/m² | - |
| 1778166930 | 17.78° C | 66% | 1019.5 hPa | 0 mm | - | 724 W/m² | - |
| 1778166628 | 17.78° C | 64% | 1019.5 hPa | 0 mm | - | 692 W/m² | - |
| 1778166325 | 17.22° C | 68% | 1019.5 hPa | 0 mm | - | 499 W/m² | - |
| 1778166021 | 17.22° C | 66% | 1019.5 hPa | 0 mm | - | 243 W/m² | - |
| 1778165716 | 17.22° C | 66% | 1019.5 hPa | 0 mm | - | 624 W/m² | - |
| 1778165415 | 17.78° C | 65% | 1019.6 hPa | 0 mm | - | 668 W/m² | - |
| 1778165111 | 17.22° C | 66% | 1019.7 hPa | 0 mm | - | 527 W/m² | - |
* Rain latest hour (hover to see other rain measurements)
** Current wind speed in m/s (hover to see current wind gust speed)